createdAt,value
2023-03-12T00:00:11.807Z,5.23
2023-03-12T00:01:15.600Z,1.93
2023-03-12T00:02:18.371Z,4.43
2023-03-12T00:03:20.157Z,4.67
2023-03-12T00:04:22.807Z,3.57
2023-03-12T00:05:25.793Z,4.17
2023-03-12T00:06:28.803Z,6.90
2023-03-12T00:07:31.870Z,2.77
2023-03-12T00:08:34.622Z,3.60
2023-03-12T00:09:36.770Z,5.60
2023-03-12T00:10:40.196Z,2.67
2023-03-12T00:11:42.887Z,6.37
2023-03-12T00:12:44.663Z,3.20
2023-03-12T00:13:50.779Z,4.43
2023-03-12T00:14:52.443Z,5.87
2023-03-12T00:15:55.145Z,3.70
2023-03-12T00:16:56.895Z,4.20
2023-03-12T00:17:59.663Z,4.53
2023-03-12T00:19:01.606Z,3.47
2023-03-12T00:20:06.713Z,2.73
2023-03-12T00:21:08.946Z,7.77
2023-03-12T00:22:11.608Z,3.17
2023-03-12T00:23:15.583Z,3.80
2023-03-12T00:24:18.429Z,4.67
2023-03-12T00:25:21.226Z,2.50
2023-03-12T00:26:24.019Z,1.93
2023-03-12T00:27:26.451Z,3.70
2023-03-12T00:28:29.179Z,3.13
2023-03-12T00:29:30.907Z,2.53
2023-03-12T00:30:33.609Z,3.73
2023-03-12T00:31:35.462Z,3.67
2023-03-12T00:32:38.688Z,3.87
2023-03-12T00:33:40.462Z,4.23
2023-03-12T00:34:43.551Z,2.87
2023-03-12T00:35:45.250Z,4.53
2023-03-12T00:36:47.933Z,3.30
2023-03-12T00:37:49.599Z,4.27
2023-03-12T00:38:53.953Z,5.17
2023-03-12T00:39:55.750Z,4.63
2023-03-12T00:40:58.406Z,4.33
2023-03-12T00:42:00.144Z,2.13
2023-03-12T00:43:02.898Z,5.00
2023-03-12T00:44:04.618Z,3.90
2023-03-12T00:45:08.513Z,2.97
2023-03-12T00:46:10.820Z,5.37
2023-03-12T00:47:14.160Z,6.27
2023-03-12T00:48:15.940Z,4.73
2023-03-12T00:49:18.726Z,4.53
2023-03-12T00:50:20.482Z,4.57
2023-03-12T00:51:23.235Z,3.60
2023-03-12T00:52:24.966Z,5.30
2023-03-12T00:53:27.781Z,7.17
2023-03-12T00:54:30.931Z,2.17
2023-03-12T00:55:33.573Z,6.63
2023-03-12T00:56:35.295Z,6.90
2023-03-12T00:57:38.034Z,5.47
2023-03-12T00:58:42.032Z,3.70
2023-03-12T00:59:44.822Z,4.67
2023-03-12T01:00:46.538Z,3.20
2023-03-12T01:01:49.498Z,5.10
2023-03-12T01:02:51.258Z,8.87
2023-03-12T01:03:54.271Z,3.63
2023-03-12T01:04:56.073Z,4.20
2023-03-12T01:05:58.733Z,6.27
2023-03-12T01:07:00.406Z,3.53
2023-03-12T01:08:03.112Z,4.17
2023-03-12T01:09:05.862Z,5.07
2023-03-12T01:10:12.220Z,3.07
2023-03-12T01:11:14.448Z,4.37
2023-03-12T01:12:17.146Z,1.57
2023-03-12T01:13:18.951Z,4.63
2023-03-12T01:14:21.659Z,3.33
2023-03-12T01:15:23.781Z,3.37
2023-03-12T01:16:28.272Z,3.30
2023-03-12T01:17:30.104Z,4.90
2023-03-12T01:18:32.819Z,1.70
2023-03-12T01:19:34.572Z,2.73
2023-03-12T01:20:37.282Z,3.67
2023-03-12T01:21:39.019Z,3.93
2023-03-12T01:22:41.842Z,4.20
2023-03-12T01:23:43.553Z,2.43
2023-03-12T01:24:46.218Z,3.17
2023-03-12T01:25:51.852Z,4.77
2023-03-12T01:26:54.807Z,4.93
2023-03-12T01:27:56.796Z,5.77
2023-03-12T01:28:59.485Z,4.57
2023-03-12T01:30:01.198Z,4.03
2023-03-12T01:31:08.320Z,3.97
2023-03-12T01:32:10.064Z,2.37
2023-03-12T01:33:12.690Z,12.77
2023-03-12T01:34:14.953Z,4.37
2023-03-12T01:35:17.705Z,5.07
2023-03-12T01:36:21.395Z,4.20
2023-03-12T01:37:24.038Z,5.03
2023-03-12T01:38:25.718Z,3.03
2023-03-12T01:39:28.691Z,4.17
2023-03-12T01:40:33.380Z,2.73
2023-03-12T01:41:37.821Z,3.57
2023-03-12T01:42:39.502Z,5.90
2023-03-12T01:43:42.307Z,3.30
2023-03-12T01:44:52.534Z,5.40
2023-03-12T01:46:04.842Z,6.07
2023-03-12T01:47:07.520Z,2.60
2023-03-12T01:48:10.137Z,2.20
2023-03-12T01:49:14.372Z,2.67
2023-03-12T01:50:16.085Z,4.70
2023-03-12T01:51:19.994Z,6.07
2023-03-12T01:52:24.549Z,3.73
2023-03-12T01:53:26.527Z,3.03
2023-03-12T01:54:32.105Z,2.23
2023-03-12T01:55:33.818Z,2.53
2023-03-12T01:56:39.288Z,3.50
2023-03-12T01:57:43.982Z,6.63
2023-03-12T01:58:50.130Z,2.63
2023-03-12T01:59:53.195Z,5.20
2023-03-12T02:00:56.223Z,5.57
2023-03-12T02:01:58.450Z,4.20
2023-03-12T02:03:04.848Z,3.97
2023-03-12T02:04:06.746Z,4.63
2023-03-12T02:05:13.279Z,3.43
2023-03-12T02:06:15.792Z,18.53
2023-03-12T02:07:18.646Z,5.50
2023-03-12T02:08:20.859Z,5.37
2023-03-12T02:09:23.599Z,6.50
2023-03-12T02:10:26.276Z,2.60
2023-03-12T02:11:29.181Z,2.03
2023-03-12T02:12:33.372Z,5.13
2023-03-12T02:13:35.160Z,2.97
2023-03-12T02:14:38.522Z,5.07
2023-03-12T02:15:40.272Z,4.03
2023-03-12T02:16:43.225Z,2.63
2023-03-12T02:17:45.118Z,2.43
2023-03-12T02:18:48.384Z,3.40
2023-03-12T02:19:57.934Z,4.63
2023-03-12T02:21:07.331Z,5.10
2023-03-12T02:22:09.508Z,3.07
2023-03-12T02:23:16.951Z,2.47
2023-03-12T02:24:26.327Z,5.23
2023-03-12T02:25:32.776Z,2.43
2023-03-12T02:26:35.590Z,4.07
2023-03-12T02:27:38.569Z,5.10
2023-03-12T02:28:44.039Z,1.60
2023-03-12T02:29:47.108Z,4.20
2023-03-12T02:30:50.648Z,3.47
2023-03-12T02:31:56.664Z,2.37
2023-03-12T02:32:59.030Z,4.20
2023-03-12T02:34:01.746Z,3.53
2023-03-12T02:35:04.648Z,2.47
2023-03-12T02:36:07.521Z,2.33
2023-03-12T02:37:09.222Z,5.07
2023-03-12T02:38:35.352Z,4.83
2023-03-12T02:39:38.481Z,2.53
2023-03-12T02:40:44.088Z,4.70
2023-03-12T02:41:49.564Z,6.00
2023-03-12T02:42:52.150Z,3.57
2023-03-12T02:44:01.417Z,3.87
2023-03-12T02:45:03.859Z,5.97
2023-03-12T02:46:06.719Z,2.47
2023-03-12T02:47:08.622Z,2.57
2023-03-12T02:48:11.300Z,4.33
2023-03-12T02:49:14.103Z,6.67
2023-03-12T02:50:17.444Z,8.07
2023-03-12T02:51:19.244Z,4.10
2023-03-12T02:52:21.934Z,3.97
2023-03-12T02:53:23.648Z,2.63
2023-03-12T02:54:26.961Z,3.40
2023-03-12T02:55:28.641Z,4.53
2023-03-12T02:56:32.704Z,5.87
2023-03-12T02:57:37.513Z,5.67
2023-03-12T02:58:40.344Z,5.30
2023-03-12T02:59:42.049Z,2.97
2023-03-12T03:00:44.820Z,3.67
2023-03-12T03:01:46.766Z,2.70
2023-03-12T03:02:49.554Z,4.77
2023-03-12T03:03:51.367Z,6.73
2023-03-12T03:04:54.046Z,6.00
2023-03-12T03:05:55.769Z,6.30
2023-03-12T03:06:58.563Z,30.07
2023-03-12T03:08:00.670Z,34.03
2023-03-12T03:09:03.708Z,26.70
2023-03-12T03:10:06.980Z,19.97
2023-03-12T03:11:10.085Z,15.03
2023-03-12T03:12:16.142Z,14.03
2023-03-12T03:13:18.811Z,11.43
2023-03-12T03:14:20.629Z,9.63
2023-03-12T03:15:23.350Z,7.37
2023-03-12T03:16:25.116Z,12.97
2023-03-12T03:17:29.153Z,8.47
2023-03-12T03:18:31.416Z,7.60
2023-03-12T03:19:34.161Z,10.20
2023-03-12T03:20:35.961Z,10.90
2023-03-12T03:21:38.767Z,11.17
2023-03-12T03:22:40.453Z,5.80
2023-03-12T03:23:43.666Z,8.30
2023-03-12T03:24:45.934Z,5.17
2023-03-12T03:25:48.579Z,5.70
2023-03-12T03:26:50.328Z,4.57
2023-03-12T03:27:54.358Z,8.10
2023-03-12T03:28:56.197Z,6.67
2023-03-12T03:29:58.932Z,6.17
2023-03-12T03:31:02.094Z,5.03
2023-03-12T03:32:05.433Z,4.67
2023-03-12T03:33:07.101Z,8.77
2023-03-12T03:34:09.776Z,8.70
2023-03-12T03:35:11.527Z,7.60
2023-03-12T03:36:15.287Z,5.13
2023-03-12T03:37:17.006Z,5.53
2023-03-12T03:38:19.683Z,4.67
2023-03-12T03:39:22.461Z,5.23
2023-03-12T03:40:24.377Z,4.93
2023-03-12T03:41:27.194Z,6.80
2023-03-12T03:42:29.011Z,5.67
2023-03-12T03:43:33.108Z,3.77
2023-03-12T03:44:34.895Z,6.50
2023-03-12T03:45:37.546Z,3.23
2023-03-12T03:46:39.714Z,8.87
2023-03-12T03:47:42.511Z,4.33
2023-03-12T03:48:44.503Z,6.10
2023-03-12T03:49:47.350Z,6.10
2023-03-12T03:50:49.099Z,3.87
2023-03-12T03:51:51.935Z,5.00
2023-03-12T03:52:53.665Z,5.10
2023-03-12T03:53:57.050Z,9.87
2023-03-12T03:54:59.456Z,4.97
2023-03-12T03:56:06.914Z,9.50
2023-03-12T03:57:08.608Z,5.50
2023-03-12T03:58:11.336Z,5.93
2023-03-12T03:59:14.423Z,9.13
2023-03-12T04:00:18.305Z,6.83
2023-03-12T04:01:20.663Z,6.43
2023-03-12T04:02:23.358Z,5.37
2023-03-12T04:03:25.066Z,6.83
2023-03-12T04:04:27.688Z,7.87
2023-03-12T04:05:29.661Z,6.13
2023-03-12T04:06:32.798Z,4.87
2023-03-12T04:07:34.519Z,8.23
2023-03-12T04:08:37.859Z,5.70
2023-03-12T04:09:39.605Z,4.00
2023-03-12T04:10:42.281Z,3.83
2023-03-12T04:11:43.970Z,4.40
2023-03-12T04:12:46.642Z,5.83
2023-03-12T04:13:48.862Z,5.00
2023-03-12T04:14:52.902Z,7.87
2023-03-12T04:15:54.613Z,3.70
2023-03-12T04:16:57.297Z,8.17
2023-03-12T04:17:59.094Z,4.37
2023-03-12T04:19:01.815Z,4.57
2023-03-12T04:20:07.301Z,5.87
2023-03-12T04:21:11.480Z,4.40
2023-03-12T04:22:13.254Z,4.17
2023-03-12T04:23:15.969Z,6.80
2023-03-12T04:24:20.275Z,5.17
2023-03-12T04:25:23.006Z,3.30
2023-03-12T04:26:24.723Z,3.10
2023-03-12T04:27:27.457Z,3.37
2023-03-12T04:28:29.581Z,3.70
2023-03-12T04:29:32.280Z,5.07
2023-03-12T04:30:38.177Z,6.23
2023-03-12T04:31:41.144Z,4.27
2023-03-12T04:32:42.987Z,4.63
2023-03-12T04:33:45.747Z,4.37
2023-03-12T04:34:47.407Z,3.77
2023-03-12T04:35:52.632Z,3.43
2023-03-12T04:36:55.407Z,4.77
2023-03-12T04:37:57.080Z,4.37
2023-03-12T04:38:59.752Z,3.53
2023-03-12T04:40:02.448Z,3.90
2023-03-12T04:41:07.303Z,6.93
2023-03-12T04:42:09.852Z,4.97
2023-03-12T04:43:12.532Z,5.47
2023-03-12T04:44:14.908Z,6.20
2023-03-12T04:45:17.804Z,6.93
2023-03-12T04:46:21.137Z,5.03
2023-03-12T04:47:23.832Z,4.23
2023-03-12T04:48:26.431Z,2.10
2023-03-12T04:49:29.483Z,5.97
2023-03-12T04:50:31.373Z,2.17
2023-03-12T04:51:34.213Z,2.70
2023-03-12T04:52:36.080Z,6.03
2023-03-12T04:53:40.415Z,5.80
2023-03-12T04:54:42.323Z,5.77
2023-03-12T04:55:44.994Z,5.03
2023-03-12T04:56:46.792Z,4.17
2023-03-12T04:57:49.475Z,4.90
2023-03-12T04:58:51.431Z,5.00
2023-03-12T04:59:54.424Z,5.57
2023-03-12T05:00:56.208Z,3.37
2023-03-12T05:02:00.220Z,2.00
2023-03-12T05:03:02.183Z,4.53
2023-03-12T05:04:05.205Z,3.27
2023-03-12T05:05:07.680Z,4.43
2023-03-12T05:06:10.389Z,4.17
2023-03-12T05:07:12.118Z,6.00
2023-03-12T05:08:15.021Z,2.27
2023-03-12T05:09:16.654Z,2.90
2023-03-12T05:10:19.638Z,2.93
2023-03-12T05:11:21.762Z,5.47
2023-03-12T05:12:24.465Z,2.80
2023-03-12T05:13:26.106Z,1.57
2023-03-12T05:14:28.780Z,2.23
2023-03-12T05:15:30.480Z,2.23
2023-03-12T05:16:33.269Z,2.80
2023-03-12T05:17:36.397Z,1.73
2023-03-12T05:18:39.262Z,4.37
2023-03-12T05:19:40.947Z,1.60
2023-03-12T05:20:43.894Z,3.03
2023-03-12T05:21:45.823Z,6.63
2023-03-12T05:22:48.607Z,4.93
2023-03-12T05:23:51.381Z,5.23
2023-03-12T05:24:53.114Z,4.63
2023-03-12T05:25:55.917Z,4.87
2023-03-12T05:26:57.635Z,3.47
2023-03-12T05:28:00.313Z,5.53
2023-03-12T05:29:03.624Z,6.20
2023-03-12T05:30:08.004Z,3.53
2023-03-12T05:31:10.922Z,4.30
2023-03-12T05:32:13.749Z,2.57
2023-03-12T05:33:16.949Z,3.23
2023-03-12T05:34:19.614Z,2.80
2023-03-12T05:35:21.348Z,5.17
2023-03-12T05:36:24.012Z,3.57
2023-03-12T05:37:26.004Z,5.40
2023-03-12T05:38:28.731Z,5.10
2023-03-12T05:39:31.393Z,4.93
2023-03-12T05:40:33.103Z,5.00
2023-03-12T05:41:35.937Z,6.63
2023-03-12T05:42:37.713Z,8.73
2023-03-12T05:43:40.445Z,7.13
2023-03-12T05:44:42.740Z,5.40
2023-03-12T05:45:45.441Z,5.60
2023-03-12T05:46:47.120Z,9.67
2023-03-12T05:47:49.855Z,6.17
2023-03-12T05:48:53.303Z,5.80
2023-03-12T05:49:55.973Z,3.17
2023-03-12T05:50:57.700Z,8.13
2023-03-12T05:52:00.432Z,4.47
2023-03-12T05:53:02.134Z,3.43
2023-03-12T05:54:04.936Z,6.07
2023-03-12T05:55:07.964Z,9.63
2023-03-12T05:56:14.215Z,3.97
2023-03-12T05:57:15.899Z,4.87
2023-03-12T05:58:19.107Z,4.00
2023-03-12T05:59:20.960Z,6.17
2023-03-12T06:00:24.426Z,3.23
2023-03-12T06:01:28.049Z,3.97
2023-03-12T06:02:30.709Z,5.90
2023-03-12T06:03:32.486Z,5.23
2023-03-12T06:04:36.558Z,5.90
2023-03-12T06:05:38.602Z,8.43
2023-03-12T06:06:41.439Z,8.53
2023-03-12T06:07:43.181Z,7.93
2023-03-12T06:08:46.008Z,7.80
2023-03-12T06:09:47.765Z,5.27
2023-03-12T06:10:53.209Z,3.67
2023-03-12T06:11:55.063Z,3.37
2023-03-12T06:12:58.591Z,4.80
2023-03-12T06:14:00.271Z,6.20
2023-03-12T06:15:02.956Z,6.67
2023-03-12T06:16:06.412Z,3.70
2023-03-12T06:17:09.120Z,3.67
2023-03-12T06:18:10.811Z,4.60
2023-03-12T06:19:14.761Z,4.60
2023-03-12T06:20:18.204Z,6.20
2023-03-12T06:21:22.512Z,7.90
2023-03-12T06:22:24.685Z,6.43
2023-03-12T06:23:27.391Z,4.70
2023-03-12T06:24:29.083Z,3.20
2023-03-12T06:25:31.867Z,3.80
2023-03-12T06:26:34.169Z,5.13
2023-03-12T06:27:36.959Z,3.13
2023-03-12T06:28:38.907Z,3.40
2023-03-12T06:29:41.554Z,3.70
2023-03-12T06:30:43.234Z,4.67
2023-03-12T06:31:47.079Z,3.50
2023-03-12T06:32:48.864Z,7.20
2023-03-12T06:33:53.660Z,4.13
2023-03-12T06:34:55.345Z,4.03
2023-03-12T06:36:01.216Z,4.17
2023-03-12T06:37:03.918Z,4.10
2023-03-12T06:38:06.564Z,4.80
2023-03-12T06:39:09.188Z,5.40
2023-03-12T06:40:13.096Z,7.10
2023-03-12T06:41:17.320Z,3.63
2023-03-12T06:42:20.699Z,5.10
2023-03-12T06:43:23.477Z,8.43
2023-03-12T06:44:25.377Z,13.13
2023-03-12T06:45:28.045Z,15.00
2023-03-12T06:46:30.042Z,15.40
2023-03-12T06:47:32.865Z,10.10
2023-03-12T06:48:36.852Z,4.10
2023-03-12T06:49:39.612Z,14.93
2023-03-12T06:50:41.354Z,6.30
2023-03-12T06:51:45.399Z,8.33
2023-03-12T06:52:47.075Z,7.23
2023-03-12T06:53:49.883Z,2.33
2023-03-12T06:54:51.588Z,4.90
2023-03-12T06:55:54.262Z,3.67
2023-03-12T06:56:56.985Z,3.87
2023-03-12T06:57:58.631Z,3.37
2023-03-12T06:59:01.355Z,2.57
2023-03-12T07:00:03.953Z,1.63
2023-03-12T07:01:06.996Z,2.03
2023-03-12T07:02:10.121Z,5.50
2023-03-12T07:03:12.912Z,6.53
2023-03-12T07:04:14.987Z,3.23
2023-03-12T07:05:17.767Z,5.43
2023-03-12T07:06:22.003Z,3.97
2023-03-12T07:07:26.021Z,5.50
2023-03-12T07:08:30.832Z,5.97
2023-03-12T07:09:33.536Z,6.63
2023-03-12T07:10:35.221Z,5.57
2023-03-12T07:11:38.380Z,2.60
2023-03-12T07:12:40.066Z,4.17
2023-03-12T07:13:42.742Z,6.30
2023-03-12T07:14:44.449Z,4.93
2023-03-12T07:15:47.245Z,2.53
2023-03-12T07:16:48.997Z,5.57
2023-03-12T07:17:51.798Z,2.47
2023-03-12T07:18:53.545Z,4.77
2023-03-12T07:19:56.225Z,5.00
2023-03-12T07:20:58.034Z,3.53
2023-03-12T07:22:00.741Z,6.10
2023-03-12T07:23:03.950Z,6.37
2023-03-12T07:24:08.300Z,4.53
2023-03-12T07:25:11.967Z,2.73
2023-03-12T07:26:14.663Z,4.40
2023-03-12T07:27:16.378Z,3.80
2023-03-12T07:28:19.634Z,4.37
2023-03-12T07:29:22.347Z,2.43
2023-03-12T07:30:24.078Z,9.30
2023-03-12T07:31:26.726Z,7.13
2023-03-12T07:32:28.523Z,6.27
2023-03-12T07:33:31.641Z,5.33
2023-03-12T07:34:33.634Z,4.97
2023-03-12T07:35:38.609Z,4.87
2023-03-12T07:36:41.566Z,3.53
2023-03-12T07:37:44.241Z,3.30
2023-03-12T07:38:47.319Z,6.60
2023-03-12T07:39:52.268Z,17.20
2023-03-12T07:40:56.413Z,11.77
2023-03-12T07:41:59.287Z,6.60
2023-03-12T07:43:01.159Z,6.77
2023-03-12T07:44:04.111Z,7.37
2023-03-12T07:45:08.096Z,6.00
2023-03-12T07:46:10.882Z,3.80
2023-03-12T07:47:23.658Z,8.23
2023-03-12T07:48:27.351Z,6.90
2023-03-12T07:49:29.261Z,6.77
2023-03-12T07:50:32.010Z,10.77
2023-03-12T07:51:33.771Z,3.13
2023-03-12T07:52:36.478Z,4.87
2023-03-12T07:53:39.126Z,5.67
2023-03-12T07:54:42.348Z,3.60
2023-03-12T07:55:46.154Z,4.70
2023-03-12T07:56:48.317Z,3.07
2023-03-12T07:57:51.490Z,4.10
2023-03-12T07:58:54.037Z,5.37
2023-03-12T07:59:56.993Z,3.57
2023-03-12T08:00:58.738Z,6.07
2023-03-12T08:02:01.617Z,3.97
2023-03-12T08:03:03.744Z,3.40
2023-03-12T08:04:06.657Z,4.77
2023-03-12T08:05:08.765Z,3.83
2023-03-12T08:06:11.605Z,6.63
2023-03-12T08:07:13.573Z,7.13
2023-03-12T08:08:17.296Z,5.83
2023-03-12T08:09:19.047Z,8.20
2023-03-12T08:10:23.425Z,2.77
2023-03-12T08:11:25.251Z,3.83
2023-03-12T08:12:28.356Z,4.23
2023-03-12T08:13:30.148Z,6.17
2023-03-12T08:14:32.876Z,3.23
2023-03-12T08:15:34.886Z,3.30
2023-03-12T08:16:37.782Z,3.53
2023-03-12T08:17:39.488Z,4.00
2023-03-12T08:18:43.011Z,5.43
2023-03-12T08:19:44.969Z,6.63
2023-03-12T08:20:51.233Z,6.73
2023-03-12T08:21:53.344Z,6.20
2023-03-12T08:22:56.631Z,6.03
2023-03-12T08:23:58.524Z,5.40
2023-03-12T08:25:01.454Z,9.00
2023-03-12T08:26:05.045Z,4.83
2023-03-12T08:27:07.726Z,7.03
2023-03-12T08:28:10.382Z,7.07
2023-03-12T08:29:12.037Z,7.10
2023-03-12T08:30:14.920Z,7.37
2023-03-12T08:31:16.693Z,6.57
2023-03-12T08:32:19.561Z,5.87
2023-03-12T08:33:22.048Z,5.13
2023-03-12T08:34:24.816Z,7.23
2023-03-12T08:35:26.661Z,7.80
2023-03-12T08:36:29.979Z,4.97
2023-03-12T08:37:31.762Z,5.73
2023-03-12T08:38:34.424Z,5.80
2023-03-12T08:39:36.151Z,5.13
2023-03-12T08:40:38.879Z,4.77
2023-03-12T08:41:42.066Z,5.87
2023-03-12T08:42:45.940Z,8.57
2023-03-12T08:43:48.807Z,6.50
2023-03-12T08:44:50.501Z,4.27
2023-03-12T08:45:56.372Z,12.67
2023-03-12T08:46:58.150Z,8.90
2023-03-12T08:48:00.828Z,5.27
2023-03-12T08:49:03.293Z,6.60
2023-03-12T08:50:06.583Z,6.37
2023-03-12T08:51:09.608Z,3.83
2023-03-12T08:52:12.670Z,6.43
2023-03-12T08:53:15.335Z,5.30
2023-03-12T08:54:17.040Z,3.70
2023-03-12T08:55:19.885Z,6.60
2023-03-12T08:56:22.609Z,4.33
2023-03-12T08:57:25.697Z,4.77
2023-03-12T08:58:28.968Z,3.60
2023-03-12T08:59:31.107Z,8.10
2023-03-12T09:00:33.755Z,4.97
2023-03-12T09:01:35.420Z,7.27
2023-03-12T09:02:40.341Z,7.27
2023-03-12T09:03:43.066Z,4.63
2023-03-12T09:04:48.015Z,8.87
2023-03-12T09:05:51.504Z,3.77
2023-03-12T09:06:54.191Z,8.30
2023-03-12T09:07:56.004Z,7.90
2023-03-12T09:09:00.175Z,6.80
2023-03-12T09:10:01.911Z,4.40
2023-03-12T09:11:05.372Z,6.20
2023-03-12T09:12:08.604Z,7.60
2023-03-12T09:13:12.667Z,9.10
2023-03-12T09:15:37.996Z,6.33
2023-03-12T09:16:39.755Z,8.93
2023-03-12T09:17:42.658Z,5.07
2023-03-12T09:18:44.402Z,7.00
2023-03-12T09:19:47.190Z,7.73
2023-03-12T09:20:48.949Z,7.13
2023-03-12T09:21:51.678Z,6.00
2023-03-12T09:22:53.350Z,5.73
2023-03-12T09:23:56.252Z,4.93
2023-03-12T09:24:57.972Z,4.33
2023-03-12T09:26:00.766Z,6.87
2023-03-12T09:27:04.200Z,5.83
2023-03-12T09:28:06.911Z,7.27
2023-03-12T09:29:09.975Z,6.80
2023-03-12T09:30:15.515Z,8.10
2023-03-12T09:31:17.342Z,9.43
2023-03-12T09:32:20.273Z,6.67
2023-03-12T09:33:22.995Z,3.37
2023-03-12T09:34:24.704Z,8.20
2023-03-12T09:35:27.709Z,6.57
2023-03-12T09:36:29.403Z,6.73
2023-03-12T09:37:32.628Z,11.20
2023-03-12T09:38:35.480Z,5.63
2023-03-12T09:39:38.169Z,8.87
2023-03-12T09:40:40.454Z,7.63
2023-03-12T09:41:47.634Z,5.23
2023-03-12T09:42:51.964Z,5.97
2023-03-12T09:43:57.589Z,8.10
2023-03-12T09:45:03.749Z,6.50
2023-03-12T09:46:12.313Z,4.90
2023-03-12T09:47:21.419Z,5.60
2023-03-12T09:48:30.227Z,7.93
2023-03-12T09:49:35.080Z,8.80
2023-03-12T09:50:40.652Z,8.83
2023-03-12T09:51:45.172Z,11.33
2023-03-12T09:52:50.637Z,6.37
2023-03-12T09:53:55.436Z,7.50
2023-03-12T09:55:00.895Z,6.07
2023-03-12T09:56:09.080Z,6.73
2023-03-12T09:57:13.000Z,7.77
2023-03-12T09:58:20.674Z,6.90
2023-03-12T09:59:23.631Z,7.03
2023-03-12T10:00:31.096Z,14.07
2023-03-12T10:01:37.713Z,8.60
2023-03-12T10:03:14.046Z,11.10
2023-03-12T10:04:32.316Z,7.90
2023-03-12T10:05:37.345Z,8.33
2023-03-12T10:06:43.008Z,6.30
2023-03-12T10:07:49.544Z,5.37
2023-03-12T10:09:00.567Z,4.70
2023-03-12T10:10:19.455Z,9.00
2023-03-12T10:11:32.128Z,7.90
2023-03-12T10:12:41.523Z,11.17
2023-03-12T10:14:01.686Z,7.93
2023-03-12T10:15:15.141Z,8.83
2023-03-12T10:16:28.762Z,8.47
2023-03-12T10:17:39.888Z,4.40
2023-03-12T10:18:55.638Z,7.87
2023-03-12T10:20:07.716Z,5.27
2023-03-12T10:21:19.943Z,6.50
2023-03-12T10:22:31.458Z,8.73
2023-03-12T10:23:42.908Z,3.53
2023-03-12T10:24:52.859Z,9.37
2023-03-12T10:25:59.875Z,7.80
2023-03-12T10:27:08.106Z,7.20
2023-03-12T10:28:15.886Z,9.00
2023-03-12T10:29:20.277Z,6.30
2023-03-12T10:30:25.607Z,8.67
2023-03-12T10:31:32.606Z,6.97
2023-03-12T10:32:40.623Z,9.23
2023-03-12T10:33:45.255Z,8.63
2023-03-12T10:34:50.322Z,6.37
2023-03-12T10:35:53.851Z,6.10
2023-03-12T10:36:59.355Z,6.60
2023-03-12T10:38:03.361Z,13.27
2023-03-12T10:39:07.032Z,7.60
2023-03-12T10:40:15.164Z,6.60
2023-03-12T10:41:19.745Z,9.47
2023-03-12T10:42:24.101Z,7.47
2023-03-12T10:43:26.135Z,9.07
2023-03-12T10:44:29.063Z,5.20
2023-03-12T10:45:35.247Z,8.87
2023-03-12T10:46:57.178Z,7.47
2023-03-12T10:48:01.990Z,7.60
2023-03-12T10:49:24.292Z,13.37
2023-03-12T10:50:28.594Z,6.50
2023-03-12T10:51:30.348Z,9.40
2023-03-12T10:52:32.966Z,14.23
2023-03-12T10:53:35.515Z,5.50
2023-03-12T10:54:40.527Z,7.70
2023-03-12T10:55:42.278Z,10.90
2023-03-12T10:56:51.501Z,10.03
2023-03-12T10:57:55.128Z,9.27
2023-03-12T10:58:59.879Z,9.57
2023-03-12T11:00:11.918Z,9.83
2023-03-12T11:01:21.997Z,13.77
2023-03-12T11:02:33.632Z,7.50
2023-03-12T11:03:36.587Z,9.60
2023-03-12T11:04:38.314Z,9.97
2023-03-12T11:05:48.948Z,9.97
2023-03-12T11:07:17.216Z,9.87
2023-03-12T11:08:23.351Z,7.00
2023-03-12T11:09:25.036Z,6.90
2023-03-12T11:10:28.495Z,8.03
2023-03-12T11:11:37.766Z,11.53
2023-03-12T11:12:41.067Z,6.43
2023-03-12T11:13:43.739Z,11.60
2023-03-12T11:14:46.688Z,8.20
2023-03-12T11:15:49.621Z,11.93
2023-03-12T11:16:53.350Z,11.33
2023-03-12T11:18:19.288Z,6.20
2023-03-12T11:19:29.724Z,11.23
2023-03-12T11:20:31.414Z,9.90
2023-03-12T11:21:37.094Z,8.07
2023-03-12T11:22:38.824Z,9.20
2023-03-12T11:23:43.887Z,9.40
2023-03-12T11:24:57.413Z,8.80
2023-03-12T11:26:02.227Z,8.97
2023-03-12T11:27:06.836Z,10.60
2023-03-12T11:28:14.543Z,8.07
2023-03-12T11:29:26.884Z,12.43
2023-03-12T11:30:33.276Z,8.87
2023-03-12T11:31:39.276Z,11.77
2023-03-12T11:32:43.114Z,10.33
2023-03-12T11:33:47.166Z,9.80
2023-03-12T11:34:49.768Z,11.13
2023-03-12T11:36:04.255Z,10.88
2023-03-12T11:37:11.692Z,9.85
2023-03-12T11:38:18.853Z,9.93
2023-03-12T11:39:26.654Z,13.45
2023-03-12T11:40:38.266Z,9.90
2023-03-12T11:41:59.525Z,10.02
2023-03-12T11:43:17.599Z,7.18
2023-03-12T11:44:28.993Z,7.05
2023-03-12T11:45:40.486Z,11.40
2023-03-12T11:46:52.368Z,7.43
2023-03-12T11:48:10.969Z,12.52
2023-03-12T11:49:26.490Z,10.13
2023-03-12T11:50:37.955Z,10.93
2023-03-12T11:51:46.778Z,6.57
2023-03-12T11:53:01.394Z,10.73
2023-03-12T11:54:31.857Z,11.75
2023-03-12T11:55:43.478Z,9.35
2023-03-12T11:56:47.849Z,8.80
2023-03-12T11:57:57.743Z,6.90
2023-03-12T11:59:15.559Z,6.95
2023-03-12T12:00:18.610Z,7.68
2023-03-12T12:01:26.670Z,7.28
2023-03-12T12:02:58.283Z,11.07
2023-03-12T12:04:37.726Z,7.65
2023-03-12T12:05:45.846Z,6.45
2023-03-12T12:06:58.123Z,8.15
2023-03-12T12:08:09.820Z,7.03
2023-03-12T12:09:20.402Z,10.00
2023-03-12T12:10:26.304Z,10.75
2023-03-12T12:11:35.422Z,8.05
2023-03-12T12:12:46.926Z,9.57
2023-03-12T12:14:03.442Z,9.90
2023-03-12T12:15:16.001Z,9.30
2023-03-12T12:16:24.691Z,11.57
2023-03-12T12:17:38.114Z,9.80
2023-03-12T12:18:50.426Z,10.55
2023-03-12T12:20:09.056Z,8.75
2023-03-12T12:21:22.993Z,9.60
2023-03-12T12:22:32.683Z,8.45
2023-03-12T12:23:45.354Z,10.18
2023-03-12T12:25:01.670Z,10.10
2023-03-12T12:26:07.178Z,7.88
2023-03-12T12:27:16.758Z,9.52
2023-03-12T12:28:30.961Z,8.73
2023-03-12T12:29:43.274Z,11.25
2023-03-12T12:30:54.505Z,7.55
2023-03-12T12:31:58.299Z,8.75
2023-03-12T12:33:11.390Z,11.50
2023-03-12T12:34:27.322Z,7.10
2023-03-12T12:35:34.928Z,7.43
2023-03-12T12:36:37.002Z,10.85
2023-03-12T12:37:47.010Z,9.70
2023-03-12T12:38:53.952Z,10.40
2023-03-12T12:40:08.600Z,10.55
2023-03-12T12:41:14.491Z,11.43
2023-03-12T12:42:22.494Z,10.90
2023-03-12T12:43:29.277Z,10.68
2023-03-12T12:44:34.130Z,12.23
2023-03-12T12:45:38.997Z,8.23
2023-03-12T12:46:45.170Z,9.93
2023-03-12T12:47:49.523Z,9.00
2023-03-12T12:48:54.930Z,11.48
2023-03-12T12:49:58.120Z,9.13
2023-03-12T12:51:02.730Z,6.22
2023-03-12T12:52:08.071Z,9.80
2023-03-12T12:53:17.262Z,7.60
2023-03-12T12:54:27.253Z,9.60
2023-03-12T12:55:33.145Z,7.53
2023-03-12T12:56:43.818Z,9.20
2023-03-12T12:57:48.673Z,9.00
2023-03-12T12:59:07.275Z,7.93
2023-03-12T13:00:20.952Z,11.35
2023-03-12T13:01:26.500Z,8.70
2023-03-12T13:02:33.956Z,11.60
2023-03-12T13:03:38.601Z,9.13
2023-03-12T13:04:40.511Z,8.75
2023-03-12T13:05:47.623Z,8.07
2023-03-12T13:07:04.544Z,8.65
2023-03-12T13:08:08.700Z,9.27
2023-03-12T13:09:16.295Z,6.95
2023-03-12T13:10:48.950Z,9.07
2023-03-12T13:12:13.423Z,9.40
2023-03-12T13:13:21.320Z,9.13
2023-03-12T13:14:39.155Z,8.63
2023-03-12T13:15:43.897Z,11.68
2023-03-12T13:16:46.354Z,9.43
2023-03-12T13:18:05.204Z,7.75
2023-03-12T13:19:20.928Z,9.98
2023-03-12T13:20:26.272Z,9.82
2023-03-12T13:21:33.654Z,10.63
2023-03-12T13:22:53.037Z,9.27
2023-03-12T13:24:04.561Z,9.43
2023-03-12T13:25:22.001Z,9.85
2023-03-12T13:26:27.883Z,9.75
2023-03-12T13:27:32.986Z,10.32
2023-03-12T13:28:37.315Z,8.38
2023-03-12T13:29:41.947Z,11.68
2023-03-12T13:30:49.120Z,10.40
2023-03-12T13:31:51.811Z,10.13
2023-03-12T13:33:11.568Z,9.30
2023-03-12T13:34:52.443Z,10.93
2023-03-12T13:36:08.511Z,12.45
2023-03-12T13:37:29.014Z,9.45
2023-03-12T13:38:40.759Z,9.13
2023-03-12T13:39:44.828Z,12.13
2023-03-12T13:41:02.213Z,11.18
2023-03-12T13:42:28.674Z,11.20
2023-03-12T13:43:56.265Z,8.10
2023-03-12T13:45:21.822Z,14.50
2023-03-12T13:46:46.332Z,11.50
2023-03-12T13:47:48.112Z,8.13
2023-03-12T13:48:51.067Z,8.65
2023-03-12T13:49:55.537Z,8.05
2023-03-12T13:50:58.832Z,10.65
2023-03-12T13:52:22.112Z,8.52
2023-03-12T13:53:26.615Z,9.65
2023-03-12T13:54:34.209Z,9.70
2023-03-12T13:55:39.327Z,7.80
2023-03-12T13:56:46.976Z,7.13
2023-03-12T13:57:51.819Z,7.50
2023-03-12T13:58:56.157Z,7.53
2023-03-12T13:59:59.685Z,12.70
2023-03-12T14:01:02.839Z,7.93
2023-03-12T14:02:09.318Z,16.25
2023-03-12T14:03:15.461Z,8.55
2023-03-12T14:04:20.606Z,11.43
2023-03-12T14:05:23.373Z,8.27
2023-03-12T14:06:28.730Z,12.52
2023-03-12T14:07:55.787Z,12.35
2023-03-12T14:09:07.735Z,8.65
2023-03-12T14:10:20.780Z,12.70
2023-03-12T14:11:37.610Z,5.75
2023-03-12T14:12:45.952Z,7.50
2023-03-12T14:14:05.688Z,8.57
2023-03-12T14:15:18.958Z,9.45
2023-03-12T14:16:26.387Z,16.50
2023-03-12T14:17:30.544Z,5.88
2023-03-12T14:18:37.235Z,7.05
2023-03-12T14:19:39.038Z,11.35
2023-03-12T14:20:42.147Z,7.53
2023-03-12T14:21:45.754Z,7.40
2023-03-12T14:22:52.363Z,7.88